Time;durP1;ratioP1;P1;durP2;ratioP2;P2;SDS_P1;SDS_P2;PMS_P1;PMS_P2;Temp;Humidity;BMP_temperature;BMP_pressure;BME280_temperature;BME280_humidity;BME280_pressure;Samples;Min_cycle;Max_cycle;Signal;HPM_P1;HPM_P2
2024/01/16 00:02:34;;;;;;;5.30;2.70;;;;;;;-0.44;100.00;98688.88;109293;1271;23620;-77
2024/01/16 00:05:15;;;;;;;7.50;2.50;;;;;;;-0.45;100.00;98691.98;109524;1270;22017;-77
2024/01/16 00:08:07;;;;;;;5.20;2.50;;;;;;;-0.48;100.00;98694.27;109506;1271;22051;-79
2024/01/16 00:10:56;;;;;;;7.40;2.80;;;;;;;-0.52;100.00;98697.58;108814;1276;23732;-79
2024/01/16 00:13:33;;;;;;;4.40;2.40;;;;;;;-0.51;100.00;98702.36;109321;1271;24310;-78
2024/01/16 00:16:18;;;;;;;4.90;3.00;;;;;;;-0.51;100.00;98711.56;109754;1265;21971;-78
2024/01/16 00:19:07;;;;;;;6.40;2.90;;;;;;;-0.51;100.00;98714.32;109439;1271;22923;-79
2024/01/16 00:21:51;;;;;;;7.90;3.70;;;;;;;-0.53;100.00;98718.96;109353;1271;23606;-79
2024/01/16 00:24:30;;;;;;;7.80;3.20;;;;;;;-0.51;100.00;98727.30;109048;1274;22454;-80
2024/01/16 00:27:42;;;;;;;5.90;3.60;;;;;;;-0.49;100.00;98732.91;108967;1274;22011;-80
2024/01/16 00:30:15;;;;;;;4.40;3.10;;;;;;;-0.46;100.00;98739.70;109994;1267;21973;-78
2024/01/16 00:32:50;;;;;;;6.50;3.50;;;;;;;-0.45;100.00;98742.58;110039;1265;21992;-79
2024/01/16 00:35:31;;;;;;;7.10;3.40;;;;;;;-0.41;100.00;98754.81;109588;1259;23045;-79
2024/01/16 00:38:14;;;;;;;4.90;3.20;;;;;;;-0.41;100.00;98755.66;110020;1264;22741;-79
2024/01/16 00:40:49;;;;;;;4.50;3.00;;;;;;;-0.42;100.00;98752.27;109267;1271;23056;-79
2024/01/16 00:43:25;;;;;;;5.60;3.70;;;;;;;-0.42;100.00;98754.65;109686;1271;23585;-78
2024/01/16 00:46:01;;;;;;;5.10;2.60;;;;;;;-0.42;100.00;98758.06;109374;1270;23035;-78
2024/01/16 00:48:35;;;;;;;4.40;2.70;;;;;;;-0.45;100.00;98764.09;109207;1268;22004;-78
2024/01/16 00:51:07;;;;;;;4.10;2.60;;;;;;;-0.46;100.00;98769.74;109676;1271;21979;-80
2024/01/16 00:53:49;;;;;;;4.80;2.60;;;;;;;-0.46;100.00;98775.39;109808;1267;23026;-78
2024/01/16 00:56:22;;;;;;;6.10;2.60;;;;;;;-0.46;100.00;98780.04;109680;1266;21963;-77
2024/01/16 00:59:00;;;;;;;7.00;3.00;;;;;;;-0.48;100.00;98781.42;109490;1267;23727;-76
2024/01/16 01:01:42;;;;;;;5.40;3.30;;;;;;;-0.50;100.00;98785.39;109922;1267;21978;-79
2024/01/16 01:04:17;;;;;;;4.70;3.30;;;;;;;-0.52;100.00;98790.90;109781;1267;21993;-77
2024/01/16 01:06:53;;;;;;;4.50;3.10;;;;;;;-0.52;100.00;98796.36;110180;1253;23120;-77
2024/01/16 01:09:25;;;;;;;5.30;3.40;;;;;;;-0.52;100.00;98798.40;110422;1261;21971;-78
2024/01/16 01:11:57;;;;;;;5.20;3.10;;;;;;;-0.53;100.00;98798.27;110261;1261;21982;-78
2024/01/16 01:14:33;;;;;;;5.10;3.60;;;;;;;-0.55;100.00;98806.16;110365;1260;24495;-79
2024/01/16 01:17:05;;;;;;;7.80;3.80;;;;;;;-0.58;100.00;98813.02;110751;1254;23836;-79
2024/01/16 01:19:40;;;;;;;3.80;2.40;;;;;;;-0.57;100.00;98819.17;111031;1254;21954;-78
2024/01/16 01:22:22;;;;;;;5.00;2.70;;;;;;;-0.60;100.00;98816.14;110961;1254;22011;-76
2024/01/16 01:24:59;;;;;;;4.40;3.10;;;;;;;-0.62;100.00;98817.70;110748;1254;22050;-78
2024/01/16 01:27:33;;;;;;;3.90;2.30;;;;;;;-0.61;100.00;98816.85;110198;1266;21983;-78
2024/01/16 01:30:18;;;;;;;5.50;2.70;;;;;;;-0.61;100.00;98819.06;110177;1266;22016;-77
2024/01/16 01:32:48;;;;;;;6.90;3.10;;;;;;;-0.62;100.00;98825.91;109968;1268;21970;-79
2024/01/16 01:35:27;;;;;;;5.60;2.60;;;;;;;-0.71;100.00;98817.86;109757;1256;23062;-77
2024/01/16 01:38:03;;;;;;;3.50;2.50;;;;;;;-0.68;100.00;98831.14;109579;1268;23608;-78
2024/01/16 01:40:45;;;;;;;6.80;2.80;;;;;;;-0.71;100.00;98828.96;109201;1273;21976;-78
2024/01/16 01:43:27;;;;;;;5.20;2.90;;;;;;;-0.73;100.00;98828.66;109418;1270;21951;-79
2024/01/16 01:46:29;;;;;;;5.10;3.00;;;;;;;-0.75;100.00;98836.55;109499;1269;22067;-79
2024/01/16 01:49:11;;;;;;;5.60;2.90;;;;;;;-0.77;100.00;98849.57;109661;1270;21987;-81
2024/01/16 01:51:46;;;;;;;5.20;2.60;;;;;;;-0.78;100.00;98855.39;110127;1265;21975;-78
2024/01/16 01:54:29;;;;;;;4.00;2.70;;;;;;;-0.81;100.00;98863.46;109982;1265;23533;-78
2024/01/16 01:56:59;;;;;;;6.30;3.00;;;;;;;-0.81;100.00;98869.95;109892;1265;21993;-78
2024/01/16 01:59:33;;;;;;;4.50;2.40;;;;;;;-0.82;100.00;98872.35;110509;1259;23652;-78
2024/01/16 02:02:07;;;;;;;7.00;2.30;;;;;;;-0.83;100.00;98872.54;110594;1257;21987;-78
2024/01/16 02:04:40;;;;;;;4.10;2.60;;;;;;;-0.85;100.00;98873.09;110905;1254;21966;-78
2024/01/16 02:07:16;;;;;;;5.90;2.80;;;;;;;-0.86;100.00;98877.22;110831;1254;22009;-78
2024/01/16 02:09:49;;;;;;;4.70;2.70;;;;;;;-0.86;100.00;98879.27;110848;1254;21976;-77
2024/01/16 02:12:35;;;;;;;5.10;2.70;;;;;;;-0.88;100.00;98878.09;110948;1255;21965;-77
2024/01/16 02:15:19;;;;;;;5.10;2.60;;;;;;;-0.90;100.00;98876.23;111142;1254;23625;-78
2024/01/16 02:18:01;;;;;;;4.00;2.30;;;;;;;-0.91;100.00;98878.31;110636;1251;23503;-78
2024/01/16 02:20:35;;;;;;;4.60;2.70;;;;;;;-0.92;100.00;98876.61;110610;1260;22050;-78
2024/01/16 02:23:12;;;;;;;4.80;3.00;;;;;;;-1.03;100.00;98862.61;110211;1266;21983;-79
2024/01/16 02:25:46;;;;;;;6.40;2.80;;;;;;;-0.93;100.00;98883.96;109887;1266;23668;-78
2024/01/16 02:28:37;;;;;;;6.40;2.90;;;;;;;-0.90;100.00;98883.93;110044;1266;21985;-79
2024/01/16 02:31:19;;;;;;;4.60;3.00;;;;;;;-0.88;100.00;98883.73;110139;1263;21982;-78
2024/01/16 02:34:03;;;;;;;5.10;3.10;;;;;;;-0.90;100.00;98884.09;109952;1266;21973;-79
2024/01/16 02:36:41;;;;;;;5.90;3.50;;;;;;;-0.89;100.00;98884.09;109564;1268;22002;-79
2024/01/16 02:39:15;;;;;;;4.70;3.00;;;;;;;-0.89;100.00;98884.60;109596;1268;22039;-80
2024/01/16 02:41:49;;;;;;;7.60;2.90;;;;;;;-0.92;100.00;98888.22;110242;1260;23615;-78
2024/01/16 02:44:42;;;;;;;8.20;3.00;;;;;;;-0.96;100.00;98885.55;110433;1259;22031;-79
2024/01/16 02:47:22;;;;;;;7.10;3.20;;;;;;;-1.02;100.00;98883.23;110570;1259;22000;-79
2024/01/16 02:50:10;;;;;;;5.10;2.70;;;;;;;-1.04;100.00;98888.73;110604;1259;21990;-78
2024/01/16 02:52:45;;;;;;;4.30;2.60;;;;;;;-1.08;100.00;98895.96;110357;1262;22000;-78
2024/01/16 02:55:21;;;;;;;3.70;2.80;;;;;;;-1.10;100.00;98899.08;110494;1260;23014;-78
2024/01/16 02:57:57;;;;;;;5.80;3.10;;;;;;;-1.14;100.00;98904.59;110555;1259;22738;-78
2024/01/16 03:00:32;;;;;;;4.30;3.00;;;;;;;-1.15;100.00;98905.44;110606;1259;21969;-78
2024/01/16 03:03:15;;;;;;;5.00;2.60;;;;;;;-1.17;100.00;98905.65;110410;1259;23155;-78
2024/01/16 03:05:50;;;;;;;4.30;3.10;;;;;;;-1.19;100.00;98898.34;110549;1260;21984;-79
2024/01/16 03:08:23;;;;;;;5.90;3.20;;;;;;;-1.20;100.00;98901.08;110618;1259;22138;-79
2024/01/16 03:10:57;;;;;;;6.00;3.40;;;;;;;-1.19;100.00;98901.75;110328;1258;22116;-79
2024/01/16 03:13:27;;;;;;;6.60;3.00;;;;;;;-1.17;100.00;98908.38;110589;1257;23594;-79
2024/01/16 03:16:03;;;;;;;4.90;2.70;;;;;;;-1.14;100.00;98902.19;110135;1263;21976;-78
2024/01/16 03:18:34;;;;;;;5.20;2.90;;;;;;;-1.12;100.00;98898.23;109405;1268;23624;-78
2024/01/16 03:21:08;;;;;;;5.80;2.80;;;;;;;-1.12;100.00;98898.92;109737;1268;22011;-77
2024/01/16 03:23:45;;;;;;;5.10;3.00;;;;;;;-1.12;100.00;98903.55;109843;1268;23620;-79
2024/01/16 03:26:17;;;;;;;4.60;2.70;;;;;;;-1.13;100.00;98903.38;107053;1272;3187666;-78
2024/01/16 03:28:58;;;;;;;5.50;3.40;;;;;;;-1.13;100.00;98913.96;109079;1273;23703;-79
2024/01/16 03:31:32;;;;;;;4.60;3.50;;;;;;;-1.17;100.00;98923.07;109288;1261;23040;-79
2024/01/16 03:34:31;;;;;;;7.00;3.00;;;;;;;-1.19;100.00;98924.11;108844;1275;22053;-79
2024/01/16 03:37:03;;;;;;;7.00;3.40;;;;;;;-1.22;100.00;98920.90;109360;1270;21973;-79
2024/01/16 03:39:33;;;;;;;5.80;2.90;;;;;;;-1.23;100.00;98923.47;109441;1271;21982;-80
2024/01/16 03:42:09;;;;;;;4.00;3.20;;;;;;;-1.26;100.00;98931.89;108890;1276;22000;-77
2024/01/16 03:44:40;;;;;;;7.30;3.80;;;;;;;-1.31;100.00;98932.63;108711;1276;22029;-78
2024/01/16 03:47:13;;;;;;;7.30;3.70;;;;;;;-1.35;100.00;98931.98;108975;1276;23760;-81
2024/01/16 03:49:48;;;;;;;6.70;3.70;;;;;;;-1.37;100.00;98935.25;108959;1276;23641;-78
2024/01/16 03:52:19;;;;;;;5.60;4.20;;;;;;;-1.37;100.00;98941.06;109130;1272;21987;-79
2024/01/16 03:54:58;;;;;;;8.30;4.40;;;;;;;-1.36;100.00;98947.36;109388;1269;22901;-79
2024/01/16 03:57:33;;;;;;;6.10;4.00;;;;;;;-1.33;100.00;98946.99;109462;1269;21990;-79
2024/01/16 04:00:29;;;;;;;5.60;4.00;;;;;;;-1.31;100.00;98951.92;109820;1263;22027;-78
2024/01/16 04:03:02;;;;;;;8.30;4.70;;;;;;;-1.29;100.00;98967.77;110039;1266;21974;-80
2024/01/16 04:05:41;;;;;;;12.10;5.20;;;;;;;-1.26;100.00;98982.77;109989;1267;21995;-78
2024/01/16 04:08:13;;;;;;;52.70;35.20;;;;;;;-1.25;100.00;98991.61;110002;1267;21984;-78
2024/01/16 04:10:44;;;;;;;14.90;9.80;;;;;;;-1.24;100.00;98998.25;110360;1264;21998;-78
2024/01/16 04:13:16;;;;;;;8.50;5.10;;;;;;;-1.24;100.00;99003.89;110445;1258;21974;-78
2024/01/16 04:15:49;;;;;;;8.20;4.60;;;;;;;-1.25;100.00;99008.34;110725;1258;23618;-79
2024/01/16 04:18:26;;;;;;;30.70;22.00;;;;;;;-1.26;100.00;99011.08;110621;1258;22967;-79
2024/01/16 04:20:58;;;;;;;10.10;7.30;;;;;;;-1.23;100.00;99016.17;110567;1258;21961;-77
2024/01/16 04:23:33;;;;;;;9.00;5.80;;;;;;;-1.20;100.00;99018.52;110534;1258;23923;-78
2024/01/16 04:26:09;;;;;;;9.40;7.50;;;;;;;-1.19;100.00;99020.05;110666;1258;21963;-77
2024/01/16 04:28:43;;;;;;;9.70;4.80;;;;;;;-1.16;100.00;99024.45;110643;1258;21967;-77
2024/01/16 04:31:21;;;;;;;7.60;4.20;;;;;;;-1.15;100.00;99023.25;110196;1265;23707;-77
2024/01/16 04:33:55;;;;;;;10.10;4.60;;;;;;;-1.12;100.00;99022.02;109577;1269;21979;-77
2024/01/16 04:36:37;;;;;;;8.70;4.70;;;;;;;-1.10;100.00;99021.81;109316;1272;21990;-78
2024/01/16 04:39:06;;;;;;;19.90;5.40;;;;;;;-1.09;100.00;99026.09;109458;1272;23062;-76
2024/01/16 04:41:37;;;;;;;8.00;4.10;;;;;;;-1.08;100.00;99032.73;109069;1274;22980;-78
2024/01/16 04:44:11;;;;;;;6.70;4.80;;;;;;;-1.07;100.00;99036.66;108990;1274;22017;-77
2024/01/16 04:46:42;;;;;;;6.80;4.50;;;;;;;-1.08;100.00;99039.05;108644;1280;21989;-78
2024/01/16 04:49:18;;;;;;;11.20;5.80;;;;;;;-1.10;100.00;99039.24;108472;1281;22020;-77
2024/01/16 04:51:52;;;;;;;10.80;5.00;;;;;;;-1.12;100.00;99037.38;108235;1285;22015;-77
2024/01/16 04:54:23;;;;;;;8.80;4.90;;;;;;;-1.15;100.00;99036.57;108358;1282;22002;-78
2024/01/16 04:56:56;;;;;;;10.20;4.80;;;;;;;-1.15;100.00;99043.58;108492;1282;21993;-79
2024/01/16 04:59:26;;;;;;;8.30;4.30;;;;;;;-1.18;100.00;99046.51;108893;1272;21984;-80
2024/01/16 05:02:07;;;;;;;6.60;4.30;;;;;;;-1.17;100.00;99046.84;108927;1276;21996;-79
2024/01/16 05:04:41;;;;;;;6.90;4.10;;;;;;;-1.19;100.00;99048.91;109435;1270;22255;-77
2024/01/16 05:07:21;;;;;;;5.60;3.60;;;;;;;-1.19;100.00;99051.98;109729;1261;21991;-76
2024/01/16 05:09:53;;;;;;;8.40;4.40;;;;;;;-1.17;100.00;99051.95;110429;1261;24443;-77
2024/01/16 05:12:24;;;;;;;6.70;3.70;;;;;;;-1.16;100.00;99052.96;110651;1260;21970;-78
2024/01/16 05:14:59;;;;;;;7.50;4.20;;;;;;;-1.16;100.00;99049.04;110576;1260;23061;-77
2024/01/16 05:17:27;;;;;;;6.10;3.90;;;;;;;-1.14;100.00;99055.86;110254;1264;22014;-78
2024/01/16 05:19:58;;;;;;;8.00;3.70;;;;;;;-1.13;100.00;99055.33;109559;1265;21997;-78
2024/01/16 05:22:27;;;;;;;4.70;3.40;;;;;;;-1.14;100.00;99051.75;109839;1267;23672;-78
2024/01/16 05:24:58;;;;;;;7.80;4.20;;;;;;;-1.14;100.00;99056.19;109460;1271;22735;-77
2024/01/16 05:27:27;;;;;;;7.70;4.90;;;;;;;-1.16;100.00;99053.99;109401;1271;22065;-78
2024/01/16 05:30:01;;;;;;;8.70;5.10;;;;;;;-1.19;100.00;99059.14;109566;1271;22203;-79
2024/01/16 05:32:34;;;;;;;8.90;5.40;;;;;;;-1.21;100.00;99072.82;109626;1268;23713;-78
2024/01/16 05:35:15;;;;;;;11.60;6.00;;;;;;;-1.24;100.00;99083.95;109619;1268;21949;-77
2024/01/16 05:37:59;;;;;;;11.10;5.60;;;;;;;-1.27;100.00;99089.44;109945;1264;23629;-80
2024/01/16 05:40:32;;;;;;;11.90;6.20;;;;;;;-1.29;100.00;99094.76;110569;1260;23837;-78
2024/01/16 05:43:02;;;;;;;15.50;6.10;;;;;;;-1.30;100.00;99096.64;110859;1254;22445;-80
2024/01/16 05:45:37;;;;;;;10.70;5.70;;;;;;;-1.31;100.00;99098.52;110976;1255;22989;-78
2024/01/16 05:48:14;;;;;;;8.80;5.30;;;;;;;-1.32;100.00;99101.45;110961;1254;22956;-80
2024/01/16 05:50:54;;;;;;;9.80;5.20;;;;;;;-1.36;100.00;99104.88;110989;1254;23824;-79
2024/01/16 05:53:31;;;;;;;8.10;5.00;;;;;;;-1.41;100.00;99109.54;110780;1260;22064;-79
2024/01/16 05:56:17;;;;;;;8.70;5.40;;;;;;;-1.44;100.00;99113.34;110637;1260;21988;-78
2024/01/16 05:58:47;;;;;;;14.20;6.20;;;;;;;-1.49;100.00;99114.23;110050;1264;23592;-79
2024/01/16 06:01:17;;;;;;;9.00;6.00;;;;;;;-1.53;100.00;99113.41;110489;1264;21979;-79
2024/01/16 06:03:55;;;;;;;16.50;6.30;;;;;;;-1.61;100.00;99116.02;110353;1264;23696;-79
2024/01/16 06:06:27;;;;;;;28.20;15.80;;;;;;;-1.68;100.00;99119.33;110305;1266;23039;-79
2024/01/16 06:09:04;;;;;;;35.50;24.00;;;;;;;-1.72;100.00;99126.70;110220;1264;22011;-78
2024/01/16 06:11:43;;;;;;;37.60;24.20;;;;;;;-1.77;100.00;99131.51;110312;1260;23005;-78
2024/01/16 06:14:21;;;;;;;38.00;24.80;;;;;;;-1.81;100.00;99134.44;110460;1263;21979;-79
2024/01/16 06:16:55;;;;;;;36.30;21.90;;;;;;;-1.84;100.00;99136.33;110289;1263;21977;-79
2024/01/16 06:19:30;;;;;;;19.30;11.70;;;;;;;-1.88;100.00;99145.91;109636;1269;22073;-78
2024/01/16 06:22:12;;;;;;;;;;;;;;;-1.92;100.00;99147.13;109498;1271;21995;-80
2024/01/16 06:24:56;;;;;;;17.00;11.00;;;;;;;-2.13;100.00;99135.83;109783;1268;22056;-80
2024/01/16 06:27:29;;;;;;;18.40;11.70;;;;;;;-2.10;100.00;99151.34;109474;1268;21973;-79
2024/01/16 06:30:14;;;;;;;19.70;12.80;;;;;;;-2.14;100.00;99158.69;109590;1268;21965;-79
2024/01/16 06:32:51;;;;;;;24.70;14.00;;;;;;;-2.19;100.00;99163.14;109948;1266;21976;-80
2024/01/16 06:35:25;;;;;;;23.20;12.70;;;;;;;-2.27;100.00;99166.93;109870;1266;23744;-79
2024/01/16 06:38:09;;;;;;;23.20;14.20;;;;;;;-2.34;100.00;99172.08;110621;1259;21971;-80
2024/01/16 06:40:51;;;;;;;23.10;14.00;;;;;;;-2.40;100.00;99176.36;110693;1259;21960;-80
2024/01/16 06:43:29;;;;;;;31.10;15.60;;;;;;;-2.43;100.00;99181.31;111138;1254;21966;-80
2024/01/16 06:46:07;;;;;;;35.60;16.70;;;;;;;-2.45;100.00;99185.59;110531;1260;23745;-79
2024/01/16 06:48:52;;;;;;;28.70;16.10;;;;;;;-2.45;100.00;99188.30;110552;1260;21956;-78
2024/01/16 06:51:32;;;;;;;30.80;19.00;;;;;;;-2.46;100.00;99188.30;110633;1260;21975;-79
2024/01/16 06:54:23;;;;;;;25.90;17.00;;;;;;;-2.45;100.00;99192.23;110555;1260;23905;-80
2024/01/16 06:57:05;;;;;;;35.30;22.70;;;;;;;-2.46;100.00;99196.48;110677;1263;21945;-80
2024/01/16 06:59:34;;;;;;;50.40;27.10;;;;;;;-2.44;100.00;99199.38;109710;1270;21977;-79
2024/01/16 07:02:13;;;;;;;32.70;19.70;;;;;;;-2.42;100.00;99205.85;109899;1267;23731;-77
2024/01/16 07:04:50;;;;;;;35.60;19.00;;;;;;;-2.40;100.00;99213.16;109988;1265;22551;-77
2024/01/16 07:07:24;;;;;;;31.30;18.80;;;;;;;-2.42;100.00;99213.84;109907;1267;24407;-76
2024/01/16 07:09:57;;;;;;;32.40;17.30;;;;;;;-2.36;100.00;99233.42;110145;1267;21978;-78
2024/01/16 07:12:29;;;;;;;30.60;19.60;;;;;;;-2.35;100.00;99245.86;110333;1267;23037;-78
2024/01/16 07:14:57;;;;;;;36.90;21.80;;;;;;;-2.33;100.00;99254.05;109980;1264;22043;-78
2024/01/16 07:17:31;;;;;;;36.10;21.70;;;;;;;-2.30;100.00;99260.33;110219;1258;22674;-78
2024/01/16 07:20:00;;;;;;;28.20;20.40;;;;;;;-2.27;100.00;99266.63;110412;1262;22315;-78
2024/01/16 07:22:31;;;;;;;19.40;14.90;;;;;;;-2.21;100.00;99269.84;110410;1262;23078;-78
2024/01/16 07:25:00;;;;;;;22.30;14.90;;;;;;;-2.12;100.00;99271.35;110274;1261;22061;-78
2024/01/16 07:27:29;;;;;;;23.20;16.10;;;;;;;-2.02;100.00;99273.70;110015;1266;23696;-78
2024/01/16 07:29:59;;;;;;;24.60;17.90;;;;;;;-1.96;100.00;99277.94;110190;1266;21962;-78
2024/01/16 07:32:31;;;;;;;30.00;15.90;;;;;;;-1.88;100.00;99281.99;109233;1272;21978;-78
2024/01/16 07:35:10;;;;;;;27.80;17.20;;;;;;;-1.83;100.00;99285.38;109384;1272;22046;-77
2024/01/16 07:37:41;;;;;;;34.50;22.40;;;;;;;-1.76;100.00;99289.79;109500;1267;22061;-78
2024/01/16 07:40:16;;;;;;;30.90;23.90;;;;;;;-1.69;100.00;99295.20;109934;1267;21974;-78
2024/01/16 07:42:54;;;;;;;35.50;25.50;;;;;;;-1.62;100.00;99297.90;110185;1267;23731;-77
2024/01/16 07:45:24;;;;;;;;;;;;;;;-1.52;100.00;99296.98;110116;1261;21944;-77
2024/01/16 07:47:53;;;;;;;22.50;17.20;;;;;;;-1.55;100.00;99302.64;110509;1261;21993;-77
2024/01/16 07:50:24;;;;;;;33.90;21.30;;;;;;;-1.51;100.00;99300.75;110707;1254;21939;-78
2024/01/16 07:52:53;;;;;;;45.10;26.00;;;;;;;-1.47;100.00;99306.87;110946;1254;23025;-77
2024/01/16 07:55:23;;;;;;;39.70;25.40;;;;;;;-1.43;100.00;99312.13;110830;1254;22767;-78
2024/01/16 07:57:57;;;;;;;39.70;27.40;;;;;;;-1.40;100.00;99315.36;111356;1252;22250;-78
2024/01/16 08:00:29;;;;;;;41.70;26.50;;;;;;;-1.35;100.00;99320.27;110273;1261;23044;-76
2024/01/16 08:03:14;;;;;;;32.30;25.00;;;;;;;-1.30;100.00;99329.63;110456;1261;23187;-77
2024/01/16 08:05:46;;;;;;;35.00;26.80;;;;;;;-1.27;100.00;99337.12;110338;1262;23793;-78
2024/01/16 08:08:19;;;;;;;31.00;25.30;;;;;;;-1.25;100.00;99341.55;110535;1261;21966;-80
2024/01/16 08:10:50;;;;;;;28.60;18.70;;;;;;;-1.20;100.00;99343.91;110516;1262;21976;-78
2024/01/16 08:13:21;;;;;;;29.00;19.10;;;;;;;-1.13;100.00;99345.41;110565;1261;22272;-77
2024/01/16 08:15:58;;;;;;;19.90;15.80;;;;;;;-1.08;100.00;99347.60;110393;1262;21978;-78
2024/01/16 08:18:31;;;;;;;25.20;15.20;;;;;;;-1.05;100.00;99353.73;110513;1254;22726;-78
2024/01/16 08:21:00;;;;;;;20.30;15.10;;;;;;;-1.01;100.00;99357.97;110981;1243;21947;-77
2024/01/16 08:23:30;;;;;;;21.70;16.00;;;;;;;-0.95;100.00;99361.86;110518;1260;21977;-78
2024/01/16 08:25:59;;;;;;;19.10;13.50;;;;;;;-0.89;100.00;99369.34;110525;1260;22141;-78
2024/01/16 08:28:30;;;;;;;21.40;14.10;;;;;;;-0.82;100.00;99372.52;110528;1260;21977;-78
2024/01/16 08:30:58;;;;;;;21.10;15.60;;;;;;;-0.75;100.00;99372.81;110079;1265;21970;-79
2024/01/16 08:33:28;;;;;;;26.70;17.40;;;;;;;-0.68;100.00;99372.77;109729;1268;22253;-78
2024/01/16 08:36:15;;;;;;;59.90;31.20;;;;;;;-0.63;100.00;99373.22;109730;1268;21982;-77
2024/01/16 08:38:55;;;;;;;46.70;27.40;;;;;;;-0.61;100.00;99381.92;109149;1273;23719;-78
2024/01/16 08:41:24;;;;;;;28.30;20.50;;;;;;;-0.61;100.00;99386.04;109115;1270;21976;-77
2024/01/16 08:43:53;;;;;;;27.30;17.50;;;;;;;-0.65;100.00;99385.88;109311;1270;23603;-77
2024/01/16 08:46:28;;;;;;;26.70;19.00;;;;;;;-0.66;100.00;99387.60;109471;1270;22005;-78
2024/01/16 08:48:59;;;;;;;22.60;16.40;;;;;;;-0.64;100.00;99392.72;109428;1268;23812;-77
2024/01/16 08:51:27;;;;;;;25.30;17.30;;;;;;;-0.65;100.00;99396.48;109558;1256;22042;-78
2024/01/16 08:53:56;;;;;;;25.00;17.50;;;;;;;-0.64;100.00;99393.74;109479;1270;21978;-77
2024/01/16 08:56:25;;;;;;;24.50;17.20;;;;;;;-0.62;100.00;99394.08;109288;1271;23761;-77
2024/01/16 08:58:58;;;;;;;30.00;18.50;;;;;;;-0.60;100.00;99396.45;109098;1275;23818;-77
2024/01/16 09:01:27;;;;;;;37.40;23.70;;;;;;;-0.60;100.00;99400.20;108930;1275;22457;-77
2024/01/16 09:04:00;;;;;;;41.60;26.20;;;;;;;-0.58;100.00;99409.26;108784;1278;21988;-77
2024/01/16 09:06:31;;;;;;;54.10;33.60;;;;;;;-0.56;100.00;99414.70;108531;1278;24335;-76
2024/01/16 09:09:04;;;;;;;33.50;23.50;;;;;;;-0.52;100.00;99412.46;108469;1281;21989;-75
2024/01/16 09:11:35;;;;;;;30.30;21.00;;;;;;;-0.49;100.00;99413.96;108403;1282;22209;-77
2024/01/16 09:14:08;;;;;;;27.60;19.10;;;;;;;-0.48;100.00;99414.30;108488;1282;21986;-77
2024/01/16 09:16:38;;;;;;;22.80;18.30;;;;;;;-0.44;100.00;99413.42;108523;1277;21994;-78
2024/01/16 09:19:10;;;;;;;28.90;19.50;;;;;;;-0.36;100.00;99411.64;108876;1277;21991;-77
2024/01/16 09:21:48;;;;;;;28.90;19.10;;;;;;;-0.29;100.00;99419.63;109363;1258;23072;-77
2024/01/16 09:24:20;;;;;;;17.00;13.50;;;;;;;-0.27;100.00;99426.79;108986;1271;21984;-76
2024/01/16 09:26:49;;;;;;;20.10;13.80;;;;;;;-0.28;100.00;99430.55;109070;1273;22077;-77
2024/01/16 09:29:22;;;;;;;18.90;13.30;;;;;;;-0.26;100.00;99431.75;109474;1268;22211;-76
2024/01/16 09:31:54;;;;;;;15.90;11.80;;;;;;;-0.32;100.00;99434.70;109557;1271;23731;-77
2024/01/16 09:34:25;;;;;;;20.50;13.30;;;;;;;-0.37;100.00;99436.09;109203;1272;21988;-76
2024/01/16 09:36:54;;;;;;;22.70;16.90;;;;;;;-0.38;100.00;99435.25;109271;1272;21972;-77
2024/01/16 09:39:31;;;;;;;19.90;12.30;;;;;;;-0.38;100.00;99436.27;109330;1268;21979;-76
2024/01/16 09:42:12;;;;;;;16.60;10.50;;;;;;;-0.38;100.00;99433.36;109498;1268;21976;-77
2024/01/16 09:44:52;;;;;;;15.00;9.90;;;;;;;-0.40;100.00;99431.34;110061;1261;21977;-79
2024/01/16 09:47:24;;;;;;;12.90;8.30;;;;;;;-0.40;100.00;99438.00;110068;1265;21974;-76
2024/01/16 09:50:06;;;;;;;14.60;9.20;;;;;;;-0.42;100.00;99439.39;110169;1259;21975;-77
2024/01/16 09:52:36;;;;;;;19.60;13.00;;;;;;;-0.47;100.00;99445.92;110722;1260;21973;-77
2024/01/16 09:55:14;;;;;;;23.40;13.80;;;;;;;-0.52;100.00;99454.49;110589;1260;23831;-77
2024/01/16 09:57:53;;;;;;;25.90;14.50;;;;;;;-0.61;100.00;99457.98;110284;1263;21957;-78
2024/01/16 10:00:27;;;;;;;18.10;11.40;;;;;;;-0.67;100.00;99456.83;110315;1263;23710;-77
2024/01/16 10:03:02;;;;;;;14.50;9.40;;;;;;;-0.71;100.00;99453.94;109428;1268;21974;-76
2024/01/16 10:05:33;;;;;;;14.90;9.90;;;;;;;-0.71;100.00;99454.98;110032;1264;23755;-78
2024/01/16 10:08:05;;;;;;;9.90;6.20;;;;;;;-0.69;100.00;99458.21;110382;1251;23075;-75
2024/01/16 10:10:35;;;;;;;14.10;7.40;;;;;;;-0.68;100.00;99458.71;110224;1264;23059;-76
2024/01/16 10:13:17;;;;;;;8.90;5.90;;;;;;;-0.67;100.00;99460.07;110372;1264;21964;-76
2024/01/16 10:15:55;;;;;;;11.60;7.30;;;;;;;-0.68;100.00;99462.13;110414;1259;21999;-76
2024/01/16 10:18:28;;;;;;;22.40;15.00;;;;;;;-0.65;100.00;99458.17;110565;1260;23586;-76
2024/01/16 10:21:02;;;;;;;18.00;14.30;;;;;;;-0.56;100.00;99448.89;110135;1264;23744;-78
2024/01/16 10:23:34;;;;;;;14.00;10.50;;;;;;;-0.46;100.00;99453.60;110060;1264;23463;-76
2024/01/16 10:26:13;;;;;;;11.60;8.00;;;;;;;-0.34;100.00;99460.34;110113;1264;23756;-77
2024/01/16 10:28:46;;;;;;;10.50;7.50;;;;;;;-0.27;100.00;99469.70;110748;1259;23788;-76
2024/01/16 10:31:14;;;;;;;;;;;;;;;-0.26;100.00;99476.37;109921;1265;21953;-77
2024/01/16 10:33:46;;;;;;;12.80;6.20;;;;;;;-0.37;100.00;99477.30;110500;1264;22049;-78
2024/01/16 10:36:25;;;;;;;16.70;10.90;;;;;;;-0.42;100.00;99479.05;110287;1263;21982;-79
2024/01/16 10:39:03;;;;;;;20.00;13.40;;;;;;;-0.36;100.00;99479.86;110512;1259;22007;-78
2024/01/16 10:41:32;;;;;;;14.60;7.90;;;;;;;-0.35;100.00;99479.67;110337;1259;22335;-78
2024/01/16 10:44:07;;;;;;;11.90;6.80;;;;;;;-0.36;100.00;99475.75;110652;1259;22086;-79
2024/01/16 10:46:39;;;;;;;11.20;7.80;;;;;;;-0.37;100.00;99474.58;110673;1259;23634;-79
2024/01/16 10:49:12;;;;;;;17.00;10.60;;;;;;;-0.33;100.00;99475.90;110963;1254;23728;-76
2024/01/16 10:51:46;;;;;;;20.10;14.00;;;;;;;-0.11;100.00;99481.02;111036;1254;21947;-77
2024/01/16 10:54:18;;;;;;;16.00;9.40;;;;;;;0.02;100.00;99483.48;111067;1255;22122;-75
2024/01/16 10:56:56;;;;;;;14.90;9.60;;;;;;;0.03;100.00;99484.84;110735;1260;23043;-75
2024/01/16 11:00:10;;;;;;;14.90;8.80;;;;;;;0.09;100.00;99493.70;110679;1260;21963;-77
2024/01/16 11:03:10;;;;;;;14.00;6.40;;;;;;;0.11;100.00;99496.40;110768;1259;21966;-76
2024/01/16 11:05:50;;;;;;;12.90;7.30;;;;;;;0.09;100.00;99495.05;110789;1259;22717;-77
2024/01/16 11:08:30;;;;;;;13.00;7.60;;;;;;;0.07;100.00;99499.17;111080;1257;21946;-76
2024/01/16 11:11:07;;;;;;;18.70;9.80;;;;;;;0.07;100.00;99496.95;110558;1260;23564;-76
2024/01/16 11:13:44;;;;;;;16.20;9.20;;;;;;;0.07;100.00;99501.91;110462;1263;23039;-78
2024/01/16 11:16:26;;;;;;;15.20;7.80;;;;;;;0.07;100.00;99502.44;110446;1263;22166;-78
2024/01/16 11:19:08;;;;;;;11.40;7.70;;;;;;;0.08;100.00;99501.06;109894;1270;21993;-78
2024/01/16 11:22:06;;;;;;;11.30;7.70;;;;;;;0.05;100.00;99496.11;110177;1265;22906;-77
2024/01/16 11:24:37;;;;;;;11.40;7.20;;;;;;;0.09;100.00;99494.20;110257;1265;22018;-78
2024/01/16 11:27:40;;;;;;;13.40;7.40;;;;;;;0.18;100.00;99494.46;109932;1260;21978;-76
2024/01/16 11:30:46;;;;;;;12.20;7.00;;;;;;;0.25;100.00;99495.25;109898;1269;22493;-77
2024/01/16 11:34:03;;;;;;;12.90;7.10;;;;;;;0.24;100.00;99496.97;109605;1269;22043;-77
2024/01/16 11:36:55;;;;;;;11.60;6.50;;;;;;;0.18;100.00;99496.18;109813;1264;21978;-77
2024/01/16 11:39:35;;;;;;;12.30;8.70;;;;;;;0.18;100.00;99494.30;110187;1264;22435;-78
2024/01/16 11:42:09;;;;;;;14.10;8.90;;;;;;;0.23;100.00;99494.58;110004;1264;21976;-77
2024/01/16 11:44:55;;;;;;;12.50;9.80;;;;;;;0.28;100.00;99498.13;110430;1259;21926;-76
2024/01/16 11:47:30;;;;;;;17.10;12.40;;;;;;;0.30;100.00;99501.54;110862;1259;23582;-77
2024/01/16 11:50:31;;;;;;;19.80;13.20;;;;;;;0.34;100.00;99501.16;110314;1264;21974;-78
2024/01/16 11:53:03;;;;;;;15.10;10.60;;;;;;;0.34;100.00;99503.20;110436;1264;22442;-78
2024/01/16 11:56:00;;;;;;;21.00;11.50;;;;;;;0.35;100.00;99508.86;110269;1262;22124;-78